This is the latest recevied weather packets stored in our database for station/object F1AGU-13. If no packets are shown the sender has not sent any weather packets the latest 1 day(s).
| Time | Temp. | Humidity | Pressure | Rain* | Wind** | Luminosity | Snow |
|---|---|---|---|---|---|---|---|
| 1777968916 | 10° C | 94% | 1010.6 hPa | 0 mm | 0.45 m/s, 203° | - | - |
| 1777968315 | 10° C | 96% | 1010.5 hPa | 0 mm | 0.89 m/s, 23° | - | - |
| 1777967715 | 9.44° C | 96% | 1010.3 hPa | 0 mm | 1.79 m/s, 338° | - | - |
| 1777967115 | 9.44° C | 96% | 1010.2 hPa | 0 mm | 1.79 m/s, 338° | - | - |
| 1777966515 | 8.89° C | 96% | 1010.2 hPa | 0 mm | 2.24 m/s, 0° | - | - |
| 1777965915 | 8.89° C | 96% | 1010 hPa | 0 mm | 0.89 m/s, 338° | - | - |
| 1777965315 | 8.89° C | 96% | 1010 hPa | 0 mm | 0.89 m/s, 23° | - | - |
| 1777963515 | 8.33° C | 97% | 1009.7 hPa | 0 mm | 0.45 m/s, 90° | - | - |
| 1777962915 | 8.33° C | 96% | 1009.7 hPa | 0 mm | 0.45 m/s, 113° | - | - |
| 1777962317 | 8.33° C | 96% | 1009.7 hPa | 0 mm | 0.89 m/s, 315° | - | - |
| 1777961117 | 7.78° C | 96% | 1009.6 hPa | 0 mm | 0.45 m/s, 23° | - | - |
| 1777960517 | 8.33° C | 96% | 1009.6 hPa | 0.25 mm | 1.34 m/s, 23° | - | - |
| 1777959917 | 8.33° C | 96% | 1009.6 hPa | 0.25 mm | 0.45 m/s, 0° | - | - |
| 1777958717 | 8.33° C | 94% | 1009.6 hPa | 0.25 mm | 1.34 m/s, 225° | - | - |
| 1777958117 | 7.78° C | 95% | 1009.6 hPa | 0.51 mm | 2.68 m/s, 203° | - | - |
| 1777957517 | 7.78° C | 95% | 1009.7 hPa | 0.76 mm | 3.13 m/s, 225° | - | - |
| 1777956917 | 7.78° C | 96% | 1009.8 hPa | 0.76 mm | 2.24 m/s, 225° | - | - |
| 1777956315 | 7.78° C | 96% | 1009.9 hPa | 1.27 mm | 2.68 m/s, 225° | - | - |
| 1777955717 | 7.78° C | 96% | 1010.3 hPa | 2.03 mm | 2.24 m/s, 203° | - | - |
| 1777955117 | 7.78° C | 97% | 1010.5 hPa | 2.29 mm | 2.68 m/s, 203° | - | - |
| 1777954517 | 7.78° C | 97% | 1010.7 hPa | 2.29 mm | 1.79 m/s, 180° | - | - |
| 1777953917 | 7.78° C | 97% | 1010.6 hPa | 2.29 mm | 2.68 m/s, 225° | - | - |
| 1777953317 | 7.78° C | 97% | 1010.7 hPa | 2.29 mm | 2.24 m/s, 225° | - | - |
| 1777952717 | 7.78° C | 97% | 1011.3 hPa | 2.79 mm | 1.34 m/s, 203° | - | - |
| 1777952117 | 7.78° C | 97% | 1011.4 hPa | 3.05 mm | 0.89 m/s, 203° | - | - |
* Rain latest hour (hover to see other rain measurements)
** Current wind speed in m/s (hover to see current wind gust speed)